Windsor, Ontario

10:20 AM EDT on August 21, 2017 (GMT -0400)
South East WIndsor | | Change Station

Elev 335 ft 42.27 °N, 82.97 °W | Updated 30 seconds ago

Mostly Cloudy
Mostly Cloudy
81.4 °F
Feels Like 84 °F
N
0.0
Wind Variable Wind from SSW

Today
High -- | Low -- °F
--% Chance of Precip.
Yesterday
High -- | Low -- °F
Precip. -- in
Pressure 30.10 in
Visibility 12.0 miles
Clouds Few 16000 ft
Mostly Cloudy 27000 ft
Heat Index 84 °F
Dew Point 67 °F
Humidity 63%
Rainfall 0.00 in
Snow Depth Not available.
6:45 AM 8:23 PM
Waning Crescent, 0% visible
METAR CYQG 211400Z 20005KT 12SM FEW160 BKN270 27/22 A3010 RMK AC1CI4 SLP191 DENSITY ALT 2000FT
Pressure 30.10 in
Visibility 12.0 miles
Clouds Few 16000 ft
Mostly Cloudy 27000 ft
Heat Index 84 °F
Dew Point 67 °F
Humidity 63%
Rainfall 0.00 in
Snow Depth Not available.
6:45 AM 8:23 PM
Waning Crescent, 0% visible
METAR CYQG 211400Z 20005KT 12SM FEW160 BKN270 27/22 A3010 RMK AC1CI4 SLP191 DENSITY ALT 2000FT

Get Severe Weather Alerts

Thanks for signing up!

Be on the lookout for a verification email in your inbox.

You'll start receiving the daily forecast at 6 AM.

×

10-Day Weather Forecast

Almanac

Astronomy

Aug. 21, 2017 Rise Set
Actual Time
Civil Twilight
Nautical Twilight
Astronomical Twilight
Moon
Length of Visible Light
Length of Day
Tomorrow will be .
, % of the Moon is Illuminated

Today's Extremes

Country Highs Country Lows

Community

WunderPhotos

Category 6

Welcome to Category 6. This is the collective home for Weather Underground's featured writeups by Dr. Jeff Masters (right), Bob Henson (left), Chris Burt, and other regular contributors.

Nearby

Air Quality

  Air Quality AQ Index Pollutant
Not available.

Snow Depth

Station Depth Elevation

Earthquake Activity

City Distance Mag. Time & Date
Minimum magnitude displayed is 2.5.

Coastal Water Temperatures

Place Temperature

Stations

Nearby Weather Stations

Station Location Temp. Windchill Dew Point Humidity Wind Precip. Elev Updated Type
                   

Watches & Warnings

There are currently no watches in effect.